sensor_id;sensor_type;location;lat;lon;timestamp;temperature;humidity
75985;DHT22;65033;44.660;37.758;2023-06-22T00:00:49;21.99;67.88
75985;DHT22;65033;44.660;37.758;2023-06-22T00:01:54;22.03;67.94
75985;DHT22;65033;44.660;37.758;2023-06-22T00:02:57;22.05;67.97
75985;DHT22;65033;44.660;37.758;2023-06-22T00:04:04;22.07;67.88
75985;DHT22;65033;44.660;37.758;2023-06-22T00:05:08;22.11;67.69
75985;DHT22;65033;44.660;37.758;2023-06-22T00:06:12;22.16;67.68
75985;DHT22;65033;44.660;37.758;2023-06-22T00:07:15;22.20;67.45
75985;DHT22;65033;44.660;37.758;2023-06-22T00:08:20;22.27;66.94
75985;DHT22;65033;44.660;37.758;2023-06-22T00:09:25;22.33;66.85
75985;DHT22;65033;44.660;37.758;2023-06-22T00:10:29;22.34;66.57
75985;DHT22;65033;44.660;37.758;2023-06-22T00:11:36;22.37;66.40
75985;DHT22;65033;44.660;37.758;2023-06-22T00:12:43;22.39;66.20
75985;DHT22;65033;44.660;37.758;2023-06-22T00:13:46;22.40;65.87
75985;DHT22;65033;44.660;37.758;2023-06-22T00:14:51;22.44;65.95
75985;DHT22;65033;44.660;37.758;2023-06-22T00:15:54;22.48;65.07
75985;DHT22;65033;44.660;37.758;2023-06-22T00:16:59;22.57;64.67
75985;DHT22;65033;44.660;37.758;2023-06-22T00:18:03;22.61;64.21
75985;DHT22;65033;44.660;37.758;2023-06-22T00:19:06;22.63;63.93
75985;DHT22;65033;44.660;37.758;2023-06-22T00:20:11;22.65;63.89
75985;DHT22;65033;44.660;37.758;2023-06-22T00:21:14;22.65;63.88
75985;DHT22;65033;44.660;37.758;2023-06-22T00:22:19;22.64;63.78
75985;DHT22;65033;44.660;37.758;2023-06-22T00:23:31;22.70;63.55
75985;DHT22;65033;44.660;37.758;2023-06-22T00:24:39;22.70;63.58
75985;DHT22;65033;44.660;37.758;2023-06-22T00:25:43;22.70;63.44
75985;DHT22;65033;44.660;37.758;2023-06-22T00:26:47;22.71;63.41
75985;DHT22;65033;44.660;37.758;2023-06-22T00:27:51;22.71;63.47
75985;DHT22;65033;44.660;37.758;2023-06-22T00:28:55;22.70;63.42
75985;DHT22;65033;44.660;37.758;2023-06-22T00:29:59;22.68;63.39
75985;DHT22;65033;44.660;37.758;2023-06-22T00:31:04;22.72;63.60
75985;DHT22;65033;44.660;37.758;2023-06-22T00:32:08;22.71;63.58
75985;DHT22;65033;44.660;37.758;2023-06-22T00:33:12;22.69;63.65
75985;DHT22;65033;44.660;37.758;2023-06-22T00:34:16;22.67;63.63
75985;DHT22;65033;44.660;37.758;2023-06-22T00:35:20;22.65;63.49
75985;DHT22;65033;44.660;37.758;2023-06-22T00:36:23;22.65;63.26
75985;DHT22;65033;44.660;37.758;2023-06-22T00:37:28;22.65;63.47
75985;DHT22;65033;44.660;37.758;2023-06-22T00:38:33;22.67;63.29
75985;DHT22;65033;44.660;37.758;2023-06-22T00:39:38;22.67;62.66
75985;DHT22;65033;44.660;37.758;2023-06-22T00:40:42;22.67;62.57
75985;DHT22;65033;44.660;37.758;2023-06-22T00:41:46;22.65;62.70
75985;DHT22;65033;44.660;37.758;2023-06-22T00:42:49;22.67;62.59
75985;DHT22;65033;44.660;37.758;2023-06-22T00:43:53;22.67;62.57
75985;DHT22;65033;44.660;37.758;2023-06-22T00:45:00;22.70;62.56
75985;DHT22;65033;44.660;37.758;2023-06-22T00:46:07;22.67;62.75
75985;DHT22;65033;44.660;37.758;2023-06-22T00:47:12;22.65;62.92
75985;DHT22;65033;44.660;37.758;2023-06-22T00:48:18;22.66;62.90
75985;DHT22;65033;44.660;37.758;2023-06-22T00:49:23;22.64;63.08
75985;DHT22;65033;44.660;37.758;2023-06-22T00:50:28;22.63;63.06
75985;DHT22;65033;44.660;37.758;2023-06-22T00:51:33;22.63;62.92
75985;DHT22;65033;44.660;37.758;2023-06-22T00:52:37;22.70;63.55
75985;DHT22;65033;44.660;37.758;2023-06-22T00:53:46;22.71;62.62
75985;DHT22;65033;44.660;37.758;2023-06-22T00:54:54;22.68;62.55
75985;DHT22;65033;44.660;37.758;2023-06-22T00:56:02;22.69;62.68
75985;DHT22;65033;44.660;37.758;2023-06-22T00:59:11;22.75;62.23
75985;DHT22;65033;44.660;37.758;2023-06-22T01:00:30;22.73;62.14
75985;DHT22;65033;44.660;37.758;2023-06-22T01:01:42;22.72;63.60
75985;DHT22;65033;44.660;37.758;2023-06-22T01:02:47;22.70;62.19
75985;DHT22;65033;44.660;37.758;2023-06-22T01:03:54;22.73;62.08
75985;DHT22;65033;44.660;37.758;2023-06-22T01:05:00;22.72;62.27
75985;DHT22;65033;44.660;37.758;2023-06-22T01:06:08;22.69;62.21
75985;DHT22;65033;44.660;37.758;2023-06-22T01:07:18;22.65;62.18
75985;DHT22;65033;44.660;37.758;2023-06-22T01:08:33;22.62;62.23
75985;DHT22;65033;44.660;37.758;2023-06-22T01:09:45;22.60;62.22
75985;DHT22;65033;44.660;37.758;2023-06-22T01:10:57;22.56;62.30
75985;DHT22;65033;44.660;37.758;2023-06-22T01:12:06;22.53;62.31
75985;DHT22;65033;44.660;37.758;2023-06-22T01:13:21;22.48;62.65
75985;DHT22;65033;44.660;37.758;2023-06-22T01:14:33;22.37;63.15
75985;DHT22;65033;44.660;37.758;2023-06-22T01:15:42;22.29;63.37
75985;DHT22;65033;44.660;37.758;2023-06-22T01:16:51;22.24;63.53
75985;DHT22;65033;44.660;37.758;2023-06-22T01:17:57;22.24;63.43
75985;DHT22;65033;44.660;37.758;2023-06-22T01:19:10;22.21;63.55
75985;DHT22;65033;44.660;37.758;2023-06-22T01:20:18;22.18;63.64
75985;DHT22;65033;44.660;37.758;2023-06-22T01:21:28;22.16;63.71
75985;DHT22;65033;44.660;37.758;2023-06-22T01:22:48;22.14;63.80
75985;DHT22;65033;44.660;37.758;2023-06-22T01:24:02;22.14;64.24
75985;DHT22;65033;44.660;37.758;2023-06-22T01:25:11;22.20;63.70
75985;DHT22;65033;44.660;37.758;2023-06-22T01:26:22;22.18;63.94
75985;DHT22;65033;44.660;37.758;2023-06-22T01:27:40;22.19;64.02
75985;DHT22;65033;44.660;37.758;2023-06-22T01:28:51;22.18;64.25
75985;DHT22;65033;44.660;37.758;2023-06-22T01:29:57;22.18;64.33
75985;DHT22;65033;44.660;37.758;2023-06-22T01:31:04;22.18;64.87
75985;DHT22;65033;44.660;37.758;2023-06-22T01:32:11;22.22;64.47
75985;DHT22;65033;44.660;37.758;2023-06-22T01:33:16;22.22;64.66
75985;DHT22;65033;44.660;37.758;2023-06-22T01:34:21;22.23;64.88
75985;DHT22;65033;44.660;37.758;2023-06-22T01:35:29;22.24;64.71
75985;DHT22;65033;44.660;37.758;2023-06-22T01:36:36;22.23;64.67
75985;DHT22;65033;44.660;37.758;2023-06-22T01:37:44;22.21;64.87
75985;DHT22;65033;44.660;37.758;2023-06-22T01:38:48;22.21;64.91
75985;DHT22;65033;44.660;37.758;2023-06-22T01:39:55;22.20;64.94
75985;DHT22;65033;44.660;37.758;2023-06-22T01:41:00;22.20;64.97
75985;DHT22;65033;44.660;37.758;2023-06-22T01:42:05;22.20;64.98
75985;DHT22;65033;44.660;37.758;2023-06-22T01:43:09;22.21;64.95
75985;DHT22;65033;44.660;37.758;2023-06-22T01:44:15;22.20;64.99
75985;DHT22;65033;44.660;37.758;2023-06-22T01:45:25;22.17;65.21
75985;DHT22;65033;44.660;37.758;2023-06-22T01:46:29;22.14;65.23
75985;DHT22;65033;44.660;37.758;2023-06-22T01:47:34;22.17;65.33
75985;DHT22;65033;44.660;37.758;2023-06-22T01:48:38;22.18;65.37
75985;DHT22;65033;44.660;37.758;2023-06-22T01:49:43;22.19;65.19
75985;DHT22;65033;44.660;37.758;2023-06-22T01:50:47;22.19;65.27
75985;DHT22;65033;44.660;37.758;2023-06-22T01:51:54;22.14;65.46
75985;DHT22;65033;44.660;37.758;2023-06-22T01:52:58;22.18;65.27
75985;DHT22;65033;44.660;37.758;2023-06-22T01:54:02;22.18;65.50
75985;DHT22;65033;44.660;37.758;2023-06-22T01:55:06;22.21;65.36
75985;DHT22;65033;44.660;37.758;2023-06-22T01:56:11;22.20;65.22
75985;DHT22;65033;44.660;37.758;2023-06-22T01:57:15;22.20;65.32
75985;DHT22;65033;44.660;37.758;2023-06-22T01:58:20;22.19;65.50
75985;DHT22;65033;44.660;37.758;2023-06-22T01:59:31;22.18;65.58
75985;DHT22;65033;44.660;37.758;2023-06-22T02:00:37;22.14;65.60
75985;DHT22;65033;44.660;37.758;2023-06-22T02:01:47;22.14;65.82
75985;DHT22;65033;44.660;37.758;2023-06-22T02:02:57;22.13;65.69
75985;DHT22;65033;44.660;37.758;2023-06-22T02:04:08;22.11;65.91
75985;DHT22;65033;44.660;37.758;2023-06-22T02:05:16;22.10;65.97
75985;DHT22;65033;44.660;37.758;2023-06-22T02:06:24;22.10;66.14
75985;DHT22;65033;44.660;37.758;2023-06-22T02:07:33;22.10;65.99
75985;DHT22;65033;44.660;37.758;2023-06-22T02:08:41;22.06;66.02
75985;DHT22;65033;44.660;37.758;2023-06-22T02:09:47;22.06;66.50
75985;DHT22;65033;44.660;37.758;2023-06-22T02:10:53;22.09;66.24
75985;DHT22;65033;44.660;37.758;2023-06-22T02:11:57;22.06;66.33
75985;DHT22;65033;44.660;37.758;2023-06-22T02:13:06;22.04;66.38
75985;DHT22;65033;44.660;37.758;2023-06-22T02:14:13;22.03;66.36
75985;DHT22;65033;44.660;37.758;2023-06-22T02:15:19;22.01;66.80
75985;DHT22;65033;44.660;37.758;2023-06-22T02:16:28;21.96;66.81
75985;DHT22;65033;44.660;37.758;2023-06-22T02:17:34;21.91;67.09
75985;DHT22;65033;44.660;37.758;2023-06-22T02:18:38;21.84;67.20
75985;DHT22;65033;44.660;37.758;2023-06-22T02:19:43;21.76;67.66
75985;DHT22;65033;44.660;37.758;2023-06-22T02:20:47;21.68;68.00
75985;DHT22;65033;44.660;37.758;2023-06-22T02:21:53;21.62;68.17
75985;DHT22;65033;44.660;37.758;2023-06-22T02:22:57;21.54;68.49
75985;DHT22;65033;44.660;37.758;2023-06-22T02:24:01;21.49;68.59
75985;DHT22;65033;44.660;37.758;2023-06-22T02:25:06;21.45;68.71
75985;DHT22;65033;44.660;37.758;2023-06-22T02:26:10;21.42;68.78
75985;DHT22;65033;44.660;37.758;2023-06-22T02:27:16;21.38;68.88
75985;DHT22;65033;44.660;37.758;2023-06-22T02:28:20;21.34;69.02
75985;DHT22;65033;44.660;37.758;2023-06-22T02:29:24;21.31;69.06
75985;DHT22;65033;44.660;37.758;2023-06-22T02:30:29;21.29;69.45
75985;DHT22;65033;44.660;37.758;2023-06-22T02:31:33;21.25;69.40
75985;DHT22;65033;44.660;37.758;2023-06-22T02:32:37;21.23;69.69
75985;DHT22;65033;44.660;37.758;2023-06-22T02:33:40;21.20;69.97
75985;DHT22;65033;44.660;37.758;2023-06-22T02:34:46;21.19;69.93
75985;DHT22;65033;44.660;37.758;2023-06-22T02:35:53;21.19;70.00
75985;DHT22;65033;44.660;37.758;2023-06-22T02:36:58;21.19;69.87
75985;DHT22;65033;44.660;37.758;2023-06-22T02:38:03;21.21;69.71
75985;DHT22;65033;44.660;37.758;2023-06-22T02:39:09;21.20;69.80
75985;DHT22;65033;44.660;37.758;2023-06-22T02:40:13;21.21;69.92
75985;DHT22;65033;44.660;37.758;2023-06-22T02:41:18;21.20;69.92
75985;DHT22;65033;44.660;37.758;2023-06-22T02:42:24;21.20;70.02
75985;DHT22;65033;44.660;37.758;2023-06-22T02:43:27;21.18;70.07
75985;DHT22;65033;44.660;37.758;2023-06-22T02:44:33;21.19;69.95
75985;DHT22;65033;44.660;37.758;2023-06-22T02:45:39;21.17;70.11
75985;DHT22;65033;44.660;37.758;2023-06-22T02:46:44;21.19;69.90
75985;DHT22;65033;44.660;37.758;2023-06-22T02:47:50;21.21;69.68
75985;DHT22;65033;44.660;37.758;2023-06-22T02:48:54;21.27;69.31
75985;DHT22;65033;44.660;37.758;2023-06-22T02:49:57;21.34;68.71
75985;DHT22;65033;44.660;37.758;2023-06-22T02:51:01;21.43;68.42
75985;DHT22;65033;44.660;37.758;2023-06-22T02:52:05;21.51;68.11
75985;DHT22;65033;44.660;37.758;2023-06-22T02:53:09;21.59;67.81
75985;DHT22;65033;44.660;37.758;2023-06-22T02:54:16;21.67;66.95
75985;DHT22;65033;44.660;37.758;2023-06-22T02:55:22;21.74;66.24
75985;DHT22;65033;44.660;37.758;2023-06-22T02:56:31;21.84;66.14
75985;DHT22;65033;44.660;37.758;2023-06-22T02:57:37;21.90;65.53
75985;DHT22;65033;44.660;37.758;2023-06-22T02:58:40;21.96;64.88
75985;DHT22;65033;44.660;37.758;2023-06-22T02:59:46;22.08;64.59
75985;DHT22;65033;44.660;37.758;2023-06-22T03:00:51;22.16;63.69
75985;DHT22;65033;44.660;37.758;2023-06-22T03:01:58;22.25;64.30
75985;DHT22;65033;44.660;37.758;2023-06-22T03:03:06;22.38;64.85
75985;DHT22;65033;44.660;37.758;2023-06-22T03:04:09;22.61;63.37
75985;DHT22;65033;44.660;37.758;2023-06-22T03:05:17;22.66;61.94
75985;DHT22;65033;44.660;37.758;2023-06-22T03:06:23;22.75;61.54
75985;DHT22;65033;44.660;37.758;2023-06-22T03:07:33;22.80;61.26
75985;DHT22;65033;44.660;37.758;2023-06-22T03:08:37;22.92;61.04
75985;DHT22;65033;44.660;37.758;2023-06-22T03:09:44;22.93;60.83
75985;DHT22;65033;44.660;37.758;2023-06-22T03:10:48;22.92;60.82
75985;DHT22;65033;44.660;37.758;2023-06-22T03:11:56;22.93;60.18
75985;DHT22;65033;44.660;37.758;2023-06-22T03:13:10;22.99;60.52
75985;DHT22;65033;44.660;37.758;2023-06-22T03:14:13;23.00;61.36
75985;DHT22;65033;44.660;37.758;2023-06-22T03:15:27;23.01;59.58
75985;DHT22;65033;44.660;37.758;2023-06-22T03:16:34;23.02;59.84
75985;DHT22;65033;44.660;37.758;2023-06-22T03:17:38;23.07;60.01
75985;DHT22;65033;44.660;37.758;2023-06-22T03:18:43;23.10;59.70
75985;DHT22;65033;44.660;37.758;2023-06-22T03:19:51;23.10;59.34
75985;DHT22;65033;44.660;37.758;2023-06-22T03:20:55;23.08;59.64
75985;DHT22;65033;44.660;37.758;2023-06-22T03:22:02;23.08;59.38
75985;DHT22;65033;44.660;37.758;2023-06-22T03:23:08;23.12;59.51
75985;DHT22;65033;44.660;37.758;2023-06-22T03:24:12;23.17;60.31
75985;DHT22;65033;44.660;37.758;2023-06-22T03:25:15;23.22;60.19
75985;DHT22;65033;44.660;37.758;2023-06-22T03:26:25;23.27;59.41
75985;DHT22;65033;44.660;37.758;2023-06-22T03:27:36;23.31;59.89
75985;DHT22;65033;44.660;37.758;2023-06-22T03:28:45;23.38;58.48
75985;DHT22;65033;44.660;37.758;2023-06-22T03:29:48;23.38;58.41
75985;DHT22;65033;44.660;37.758;2023-06-22T03:30:52;23.39;58.49
75985;DHT22;65033;44.660;37.758;2023-06-22T03:31:57;23.39;58.51
75985;DHT22;65033;44.660;37.758;2023-06-22T03:33:02;23.43;58.74
75985;DHT22;65033;44.660;37.758;2023-06-22T03:34:06;23.44;58.48
75985;DHT22;65033;44.660;37.758;2023-06-22T03:35:10;23.49;57.66
75985;DHT22;65033;44.660;37.758;2023-06-22T03:36:18;23.53;56.26
75985;DHT22;65033;44.660;37.758;2023-06-22T03:37:22;23.54;56.13
75985;DHT22;65033;44.660;37.758;2023-06-22T03:38:26;23.65;56.61
75985;DHT22;65033;44.660;37.758;2023-06-22T03:39:32;23.67;55.48
75985;DHT22;65033;44.660;37.758;2023-06-22T03:40:38;23.71;55.73
75985;DHT22;65033;44.660;37.758;2023-06-22T03:41:46;23.77;56.18
75985;DHT22;65033;44.660;37.758;2023-06-22T03:42:50;23.76;54.91
75985;DHT22;65033;44.660;37.758;2023-06-22T03:43:54;23.81;58.07
75985;DHT22;65033;44.660;37.758;2023-06-22T03:44:58;23.88;54.64
75985;DHT22;65033;44.660;37.758;2023-06-22T03:46:04;23.91;54.28
75985;DHT22;65033;44.660;37.758;2023-06-22T03:47:10;23.88;53.44
75985;DHT22;65033;44.660;37.758;2023-06-22T03:48:16;23.95;54.10
75985;DHT22;65033;44.660;37.758;2023-06-22T03:49:23;24.16;58.90
75985;DHT22;65033;44.660;37.758;2023-06-22T03:50:27;24.39;57.96
75985;DHT22;65033;44.660;37.758;2023-06-22T03:51:34;24.47;52.21
75985;DHT22;65033;44.660;37.758;2023-06-22T03:52:38;24.46;53.52
75985;DHT22;65033;44.660;37.758;2023-06-22T03:53:41;24.44;52.35
75985;DHT22;65033;44.660;37.758;2023-06-22T03:54:47;24.49;52.07
75985;DHT22;65033;44.660;37.758;2023-06-22T03:55:52;24.59;53.84
75985;DHT22;65033;44.660;37.758;2023-06-22T03:56:57;24.59;52.01
75985;DHT22;65033;44.660;37.758;2023-06-22T03:58:01;24.56;52.19
75985;DHT22;65033;44.660;37.758;2023-06-22T03:59:09;24.51;51.99
75985;DHT22;65033;44.660;37.758;2023-06-22T04:00:14;24.48;52.09
75985;DHT22;65033;44.660;37.758;2023-06-22T04:01:23;24.48;53.01
75985;DHT22;65033;44.660;37.758;2023-06-22T04:02:29;24.51;51.65
75985;DHT22;65033;44.660;37.758;2023-06-22T04:03:33;24.57;52.94
75985;DHT22;65033;44.660;37.758;2023-06-22T04:04:37;24.66;51.08
75985;DHT22;65033;44.660;37.758;2023-06-22T04:05:42;24.65;50.95
75985;DHT22;65033;44.660;37.758;2023-06-22T04:06:48;24.66;49.82
75985;DHT22;65033;44.660;37.758;2023-06-22T04:07:52;24.63;49.57
75985;DHT22;65033;44.660;37.758;2023-06-22T04:08:57;24.69;51.64
75985;DHT22;65033;44.660;37.758;2023-06-22T04:10:01;24.72;49.65
75985;DHT22;65033;44.660;37.758;2023-06-22T04:11:04;24.78;49.89
75985;DHT22;65033;44.660;37.758;2023-06-22T04:12:09;24.76;49.50
75985;DHT22;65033;44.660;37.758;2023-06-22T04:13:12;24.82;53.10
75985;DHT22;65033;44.660;37.758;2023-06-22T04:14:16;24.99;52.45
75985;DHT22;65033;44.660;37.758;2023-06-22T04:15:23;25.14;52.26
75985;DHT22;65033;44.660;37.758;2023-06-22T04:16:26;25.29;50.81
75985;DHT22;65033;44.660;37.758;2023-06-22T04:17:35;25.38;49.27
75985;DHT22;65033;44.660;37.758;2023-06-22T04:18:39;25.40;48.23
75985;DHT22;65033;44.660;37.758;2023-06-22T04:19:43;25.34;47.99
75985;DHT22;65033;44.660;37.758;2023-06-22T04:20:47;25.33;47.68
75985;DHT22;65033;44.660;37.758;2023-06-22T04:21:51;25.30;49.73
75985;DHT22;65033;44.660;37.758;2023-06-22T04:22:55;25.31;50.30
75985;DHT22;65033;44.660;37.758;2023-06-22T04:23:58;25.40;50.19
75985;DHT22;65033;44.660;37.758;2023-06-22T04:25:07;25.43;47.02
75985;DHT22;65033;44.660;37.758;2023-06-22T04:26:10;25.45;46.51
75985;DHT22;65033;44.660;37.758;2023-06-22T04:27:14;25.39;46.36
75985;DHT22;65033;44.660;37.758;2023-06-22T04:28:21;25.38;46.13
75985;DHT22;65033;44.660;37.758;2023-06-22T04:29:25;25.34;46.73
75985;DHT22;65033;44.660;37.758;2023-06-22T04:30:33;25.38;45.46
75985;DHT22;65033;44.660;37.758;2023-06-22T04:31:37;25.40;45.40
75985;DHT22;65033;44.660;37.758;2023-06-22T04:32:42;25.42;45.89
75985;DHT22;65033;44.660;37.758;2023-06-22T04:33:48;25.42;48.01
75985;DHT22;65033;44.660;37.758;2023-06-22T04:34:54;25.44;45.95
75985;DHT22;65033;44.660;37.758;2023-06-22T04:35:58;25.43;46.96
75985;DHT22;65033;44.660;37.758;2023-06-22T04:37:07;25.42;44.87
75985;DHT22;65033;44.660;37.758;2023-06-22T04:38:12;25.42;44.84
75985;DHT22;65033;44.660;37.758;2023-06-22T04:39:17;25.42;46.28
75985;DHT22;65033;44.660;37.758;2023-06-22T04:40:22;25.43;44.61
75985;DHT22;65033;44.660;37.758;2023-06-22T04:41:29;25.50;44.70
75985;DHT22;65033;44.660;37.758;2023-06-22T04:42:34;25.49;44.03
75985;DHT22;65033;44.660;37.758;2023-06-22T04:43:54;25.59;44.25
75985;DHT22;65033;44.660;37.758;2023-06-22T04:45:17;25.66;46.35
75985;DHT22;65033;44.660;37.758;2023-06-22T04:46:24;25.77;47.57
75985;DHT22;65033;44.660;37.758;2023-06-22T04:47:35;25.76;43.53
75985;DHT22;65033;44.660;37.758;2023-06-22T04:48:50;25.84;45.95
75985;DHT22;65033;44.660;37.758;2023-06-22T04:49:54;25.93;43.92
75985;DHT22;65033;44.660;37.758;2023-06-22T04:50:58;25.93;44.12
75985;DHT22;65033;44.660;37.758;2023-06-22T04:52:07;26.05;47.57
75985;DHT22;65033;44.660;37.758;2023-06-22T04:53:34;26.12;43.37
75985;DHT22;65033;44.660;37.758;2023-06-22T04:54:45;26.10;43.26
75985;DHT22;65033;44.660;37.758;2023-06-22T04:55:53;26.08;42.96
75985;DHT22;65033;44.660;37.758;2023-06-22T04:57:01;26.03;42.61
75985;DHT22;65033;44.660;37.758;2023-06-22T05:00:55;26.13;42.95
75985;DHT22;65033;44.660;37.758;2023-06-22T05:02:03;26.21;43.71
75985;DHT22;65033;44.660;37.758;2023-06-22T05:03:11;26.31;45.00
75985;DHT22;65033;44.660;37.758;2023-06-22T05:04:24;26.32;42.75
75985;DHT22;65033;44.660;37.758;2023-06-22T05:05:28;26.32;44.16
75985;DHT22;65033;44.660;37.758;2023-06-22T05:06:33;26.33;43.13
75985;DHT22;65033;44.660;37.758;2023-06-22T05:07:37;26.30;43.16
75985;DHT22;65033;44.660;37.758;2023-06-22T05:08:42;26.27;43.12
75985;DHT22;65033;44.660;37.758;2023-06-22T05:09:53;26.31;43.33
75985;DHT22;65033;44.660;37.758;2023-06-22T05:10:59;26.37;43.59
75985;DHT22;65033;44.660;37.758;2023-06-22T05:12:13;26.39;44.48
75985;DHT22;65033;44.660;37.758;2023-06-22T05:13:17;26.41;43.03
75985;DHT22;65033;44.660;37.758;2023-06-22T05:14:28;26.43;44.54
75985;DHT22;65033;44.660;37.758;2023-06-22T05:15:32;26.49;42.92
75985;DHT22;65033;44.660;37.758;2023-06-22T05:16:46;26.48;42.75
75985;DHT22;65033;44.660;37.758;2023-06-22T05:17:54;26.53;43.37
75985;DHT22;65033;44.660;37.758;2023-06-22T05:18:58;26.57;43.07
75985;DHT22;65033;44.660;37.758;2023-06-22T05:20:05;26.57;44.29
75985;DHT22;65033;44.660;37.758;2023-06-22T05:21:41;26.63;43.10
75985;DHT22;65033;44.660;37.758;2023-06-22T05:28:30;26.79;46.80
75985;DHT22;65033;44.660;37.758;2023-06-22T05:29:59;26.80;43.71
75985;DHT22;65033;44.660;37.758;2023-06-22T05:31:22;26.80;43.93
75985;DHT22;65033;44.660;37.758;2023-06-22T05:32:47;26.77;43.02
75985;DHT22;65033;44.660;37.758;2023-06-22T05:34:16;26.77;43.51
75985;DHT22;65033;44.660;37.758;2023-06-22T05:36:03;26.83;43.91
75985;DHT22;65033;44.660;37.758;2023-06-22T05:37:29;26.94;45.30
75985;DHT22;65033;44.660;37.758;2023-06-22T05:38:52;27.11;45.94
75985;DHT22;65033;44.660;37.758;2023-06-22T05:39:58;27.20;43.78
75985;DHT22;65033;44.660;37.758;2023-06-22T05:41:05;27.24;42.60
75985;DHT22;65033;44.660;37.758;2023-06-22T05:42:11;27.26;41.71
75985;DHT22;65033;44.660;37.758;2023-06-22T05:43:16;27.27;41.77
75985;DHT22;65033;44.660;37.758;2023-06-22T05:44:37;27.32;41.15
75985;DHT22;65033;44.660;37.758;2023-06-22T05:47:12;27.39;41.23
75985;DHT22;65033;44.660;37.758;2023-06-22T05:48:16;27.37;41.64
75985;DHT22;65033;44.660;37.758;2023-06-22T05:49:22;27.40;41.38
75985;DHT22;65033;44.660;37.758;2023-06-22T05:50:32;27.44;41.45
75985;DHT22;65033;44.660;37.758;2023-06-22T05:51:42;27.49;42.06
75985;DHT22;65033;44.660;37.758;2023-06-22T05:52:45;27.53;41.65
75985;DHT22;65033;44.660;37.758;2023-06-22T05:54:10;27.56;41.70
75985;DHT22;65033;44.660;37.758;2023-06-22T05:55:16;27.55;41.32
75985;DHT22;65033;44.660;37.758;2023-06-22T05:56:23;27.56;41.32
75985;DHT22;65033;44.660;37.758;2023-06-22T05:57:29;27.57;41.79
75985;DHT22;65033;44.660;37.758;2023-06-22T05:58:35;27.58;42.11
75985;DHT22;65033;44.660;37.758;2023-06-22T05:59:45;27.66;41.99
75985;DHT22;65033;44.660;37.758;2023-06-22T06:00:48;27.71;41.14
75985;DHT22;65033;44.660;37.758;2023-06-22T06:01:51;27.73;41.50
75985;DHT22;65033;44.660;37.758;2023-06-22T06:02:56;27.80;41.21
75985;DHT22;65033;44.660;37.758;2023-06-22T06:04:13;27.86;40.37
75985;DHT22;65033;44.660;37.758;2023-06-22T06:05:18;27.88;40.65
75985;DHT22;65033;44.660;37.758;2023-06-22T06:06:26;27.91;40.81
75985;DHT22;65033;44.660;37.758;2023-06-22T06:07:53;27.98;40.65
75985;DHT22;65033;44.660;37.758;2023-06-22T06:09:02;27.99;40.77
75985;DHT22;65033;44.660;37.758;2023-06-22T06:10:06;28.04;40.76
75985;DHT22;65033;44.660;37.758;2023-06-22T06:11:09;28.08;38.84
75985;DHT22;65033;44.660;37.758;2023-06-22T06:13:34;28.03;40.11
75985;DHT22;65033;44.660;37.758;2023-06-22T06:14:41;28.06;40.07
75985;DHT22;65033;44.660;37.758;2023-06-22T06:15:44;28.06;40.23
75985;DHT22;65033;44.660;37.758;2023-06-22T06:16:48;28.08;40.92
75985;DHT22;65033;44.660;37.758;2023-06-22T06:18:11;28.10;40.88
75985;DHT22;65033;44.660;37.758;2023-06-22T06:19:18;28.13;40.88
75985;DHT22;65033;44.660;37.758;2023-06-22T06:20:23;28.11;40.12
75985;DHT22;65033;44.660;37.758;2023-06-22T06:21:26;28.06;40.13
75985;DHT22;65033;44.660;37.758;2023-06-22T06:22:31;28.02;38.07
75985;DHT22;65033;44.660;37.758;2023-06-22T06:23:37;28.04;39.75
75985;DHT22;65033;44.660;37.758;2023-06-22T06:24:40;28.03;39.20
75985;DHT22;65033;44.660;37.758;2023-06-22T06:25:44;28.03;40.01
75985;DHT22;65033;44.660;37.758;2023-06-22T06:26:47;28.04;39.12
75985;DHT22;65033;44.660;37.758;2023-06-22T06:27:51;28.03;39.57
75985;DHT22;65033;44.660;37.758;2023-06-22T06:28:56;28.05;39.83
75985;DHT22;65033;44.660;37.758;2023-06-22T06:30:00;28.05;40.36
75985;DHT22;65033;44.660;37.758;2023-06-22T06:31:04;28.05;39.27
75985;DHT22;65033;44.660;37.758;2023-06-22T06:32:10;28.06;40.17
75985;DHT22;65033;44.660;37.758;2023-06-22T06:33:13;28.06;40.23
75985;DHT22;65033;44.660;37.758;2023-06-22T06:34:18;28.10;39.85
75985;DHT22;65033;44.660;37.758;2023-06-22T06:35:22;28.08;39.70
75985;DHT22;65033;44.660;37.758;2023-06-22T06:36:26;28.08;39.12
75985;DHT22;65033;44.660;37.758;2023-06-22T06:37:36;28.08;39.56
75985;DHT22;65033;44.660;37.758;2023-06-22T06:38:41;28.13;39.27
75985;DHT22;65033;44.660;37.758;2023-06-22T06:39:44;28.13;39.32
75985;DHT22;65033;44.660;37.758;2023-06-22T06:40:49;28.17;39.45
75985;DHT22;65033;44.660;37.758;2023-06-22T06:41:52;28.20;40.02
75985;DHT22;65033;44.660;37.758;2023-06-22T06:42:55;28.25;40.11
75985;DHT22;65033;44.660;37.758;2023-06-22T06:44:00;28.29;39.85
75985;DHT22;65033;44.660;37.758;2023-06-22T06:45:06;28.29;39.24
75985;DHT22;65033;44.660;37.758;2023-06-22T06:46:10;28.32;38.85
75985;DHT22;65033;44.660;37.758;2023-06-22T06:47:14;28.29;38.55
75985;DHT22;65033;44.660;37.758;2023-06-22T06:48:18;28.30;39.10
75985;DHT22;65033;44.660;37.758;2023-06-22T06:49:21;28.32;38.36
75985;DHT22;65033;44.660;37.758;2023-06-22T06:50:25;28.34;38.47
75985;DHT22;65033;44.660;37.758;2023-06-22T06:51:30;28.34;38.03
75985;DHT22;65033;44.660;37.758;2023-06-22T06:52:37;28.38;38.37
75985;DHT22;65033;44.660;37.758;2023-06-22T06:53:54;28.41;38.33
75985;DHT22;65033;44.660;37.758;2023-06-22T06:55:01;28.45;38.78
75985;DHT22;65033;44.660;37.758;2023-06-22T06:56:30;28.52;38.85
75985;DHT22;65033;44.660;37.758;2023-06-22T06:57:37;28.53;38.82
75985;DHT22;65033;44.660;37.758;2023-06-22T06:58:47;28.49;36.25
75985;DHT22;65033;44.660;37.758;2023-06-22T06:59:50;28.53;38.46
75985;DHT22;65033;44.660;37.758;2023-06-22T07:00:56;28.56;37.97
75985;DHT22;65033;44.660;37.758;2023-06-22T07:02:03;28.55;38.49
75985;DHT22;65033;44.660;37.758;2023-06-22T07:03:22;28.61;38.31
75985;DHT22;65033;44.660;37.758;2023-06-22T07:04:42;28.61;37.64
75985;DHT22;65033;44.660;37.758;2023-06-22T07:05:47;28.61;38.28
75985;DHT22;65033;44.660;37.758;2023-06-22T07:06:53;28.61;38.43
75985;DHT22;65033;44.660;37.758;2023-06-22T07:07:57;28.68;38.57
75985;DHT22;65033;44.660;37.758;2023-06-22T07:09:04;28.72;38.66
75985;DHT22;65033;44.660;37.758;2023-06-22T07:10:08;28.72;37.41